ROMMA est une association bénévole à but non lucratif. Votre soutien est indispensable : ADHERER à ROMMA ou FAIRE un DON

Val-d'Arly - (73, Savoie)

Beaufortain (2050 m)   Longitude: 06° 35' 21" E   Latitude: 45° 46' 53" N Station romma n°118
 

Détail journalier du     <<     >>

Température Humidité Vent Dir Rafale Dir. rafale Ensol.
Heure (°C) (%) (km/h) (km/h) (min)
01:00 0.3726NNE11NNE0
02:00 -0.2786NE10NNE0
03:00 0.2567NE21OSO0
04:00 0.35019SO31SSO0
05:00 -0.55616SO27SSO0
06:00 0.44319SO27SO0
07:00 0.1558SO21SO0
08:00 0.8553ENE8ENE60
09:00 1.6501ENE5ENE60
10:00 2.9482ENE10O60
11:00 1.9499OSO16O60
12:00 2.44510OSO23O60
13:00 2.94310SO19OSO40
14:00 3.13814SO24SSO50
15:00 3.63815SO26SO60
16:00 3.73718SSO27SSO60
17:00 3.63913SSO24S60
18:00 4.7484SSO15OSO60
19:00 1.7642ENE6ENE10
20:00 1.3674NE13ENE0
21:00 1.3676E13E0
22:00 1.3684ENE6ENE0
23:00 1.2683ENE6E0
minuit 1.1692E6E0

Graphique du 29-03-2019

 

Serveur OMMA